Time,TemperatureF,DewpointF,PressureIn,WindDirection,WindDirectionDegrees,WindSpeedMPH,WindSpeedGustMPH,Humidity,HourlyPrecipIn,Conditions,Clouds,dailyrainin,SolarRadiationWatts/m^2,SoftwareType,DateUTC
2013-04-28 00:21:00,55.0,43.0,-100.00,ESE,111,0.0,6.0,65,0.00,,,0.00,0.000000,,2013-04-28 07:21:00,
2013-04-28 00:31:00,55.0,43.0,-100.00,ESE,111,0.0,6.0,65,0.00,,,0.00,0.000000,,2013-04-28 07:31:00,
2013-04-28 00:42:00,55.0,43.0,-100.00,ESE,111,0.0,6.0,65,0.00,,,0.00,0.000000,,2013-04-28 07:42:00,
2013-04-28 00:52:00,55.0,43.0,-100.00,ESE,111,0.0,6.0,65,0.00,,,0.00,0.000000,,2013-04-28 07:52:00,
2013-04-28 01:21:00,53.0,40.0,-100.00,ESE,114,0.0,2.0,61,0.00,,,0.00,0.000000,,2013-04-28 08:21:00,
2013-04-28 01:32:00,53.0,40.0,-100.00,ESE,114,0.0,2.0,61,0.00,,,0.00,0.000000,,2013-04-28 08:32:00,
2013-04-28 01:42:00,53.0,40.0,-100.00,ESE,114,0.0,2.0,61,0.00,,,0.00,0.000000,,2013-04-28 08:42:00,
2013-04-28 01:52:00,53.0,40.0,-100.00,ESE,114,0.0,2.0,61,0.00,,,0.00,0.000000,,2013-04-28 08:52:00,
2013-04-28 02:21:00,54.0,43.0,-100.00,ESE,107,0.0,5.0,65,0.00,,,-99.99,0.000000,,2013-04-28 09:21:00,
2013-04-28 02:33:00,54.0,43.0,-100.00,ESE,107,0.0,5.0,65,0.00,,,-99.99,0.000000,,2013-04-28 09:33:00,
2013-04-28 02:42:00,54.0,43.0,-100.00,ESE,107,0.0,5.0,65,0.00,,,-99.99,0.000000,,2013-04-28 09:42:00,
2013-04-28 02:53:00,54.0,43.0,-100.00,ESE,107,0.0,5.0,65,0.00,,,-99.99,0.000000,,2013-04-28 09:53:00,
2013-04-28 03:22:00,53.0,40.0,-100.00,SE,127,0.0,6.0,62,0.00,,,-99.99,0.000000,,2013-04-28 10:22:00,
2013-04-28 03:32:00,53.0,40.0,-100.00,SE,127,0.0,6.0,62,0.00,,,-99.99,0.000000,,2013-04-28 10:32:00,
2013-04-28 03:42:00,53.0,40.0,-100.00,SE,127,0.0,6.0,62,0.00,,,-99.99,0.000000,,2013-04-28 10:42:00,
2013-04-28 03:52:00,53.0,40.0,-100.00,SE,127,0.0,6.0,62,0.00,,,-99.99,0.000000,,2013-04-28 10:52:00,
2013-04-28 04:22:00,55.0,41.0,-100.00,SE,124,0.0,6.0,59,0.00,,,0.00,0.000000,,2013-04-28 11:22:00,
2013-04-28 04:32:00,55.0,41.0,-100.00,SE,124,0.0,6.0,59,0.00,,,0.00,0.000000,,2013-04-28 11:32:00,
2013-04-28 04:42:00,55.0,41.0,-100.00,SE,124,0.0,6.0,59,0.00,,,0.00,0.000000,,2013-04-28 11:42:00,
2013-04-28 04:52:00,55.0,41.0,-100.00,SE,124,0.0,6.0,59,0.00,,,0.00,0.000000,,2013-04-28 11:52:00,
2013-04-28 05:21:00,54.0,41.0,-100.00,SE,125,1.0,5.0,62,0.00,,,0.00,0.000000,,2013-04-28 12:21:00,
2013-04-28 05:32:00,54.0,41.0,-100.00,SE,125,1.0,5.0,62,0.00,,,0.00,0.000000,,2013-04-28 12:32:00,
2013-04-28 05:42:00,54.0,41.0,-100.00,SE,125,1.0,5.0,62,0.00,,,0.00,0.000000,,2013-04-28 12:42:00,
2013-04-28 05:51:00,54.0,41.0,-100.00,SE,125,1.0,5.0,62,0.00,,,0.00,0.000000,,2013-04-28 12:51:00,
2013-04-28 06:21:00,52.0,41.0,-100.00,SE,125,0.0,5.0,65,0.00,,,0.00,0.000000,,2013-04-28 13:21:00,
2013-04-28 06:31:00,52.0,41.0,-100.00,SE,125,0.0,5.0,65,0.00,,,0.00,0.000000,,2013-04-28 13:31:00,
2013-04-28 06:42:00,52.0,41.0,-100.00,SE,125,0.0,5.0,65,0.00,,,0.00,0.000000,,2013-04-28 13:42:00,
2013-04-28 06:52:00,52.0,41.0,-100.00,SE,125,0.0,5.0,65,0.00,,,0.00,0.000000,,2013-04-28 13:52:00,
2013-04-28 07:21:00,53.0,43.0,-100.00,SE,126,0.0,4.0,69,0.00,,,0.00,15.000000,,2013-04-28 14:21:00,
2013-04-28 07:31:00,53.0,43.0,-100.00,SE,126,0.0,4.0,69,0.00,,,0.00,15.000000,,2013-04-28 14:31:00,
2013-04-28 07:41:00,53.0,43.0,-100.00,SE,126,0.0,4.0,69,0.00,,,0.00,15.000000,,2013-04-28 14:41:00,
2013-04-28 07:52:00,53.0,43.0,-100.00,SE,126,0.0,4.0,69,0.00,,,0.00,15.000000,,2013-04-28 14:52:00,
2013-04-28 08:21:00,61.0,46.0,-100.00,SE,126,0.0,6.0,58,0.00,,,0.00,69.000000,,2013-04-28 15:21:00,
2013-04-28 08:42:00,61.0,46.0,-100.00,SE,126,0.0,6.0,58,0.00,,,0.00,69.000000,,2013-04-28 15:42:00,
2013-04-28 08:53:00,61.0,46.0,-100.00,SE,126,0.0,6.0,58,0.00,,,0.00,69.000000,,2013-04-28 15:53:00,
2013-04-28 09:23:00,73.0,44.0,-100.00,WSW,247,0.0,4.0,36,0.00,,,0.00,466.000000,,2013-04-28 16:23:00,
2013-04-28 10:21:00,75.0,45.0,-100.00,WNW,288,2.0,5.0,35,0.00,,,-99.99,735.000000,,2013-04-28 17:21:00,
2013-04-28 10:32:00,75.0,45.0,-100.00,WNW,288,2.0,5.0,35,0.00,,,-99.99,735.000000,,2013-04-28 17:32:00,
2013-04-28 10:42:00,75.0,45.0,-100.00,WNW,288,2.0,5.0,35,0.00,,,-99.99,735.000000,,2013-04-28 17:42:00,
2013-04-28 10:51:00,75.0,45.0,-100.00,WNW,288,2.0,5.0,35,0.00,,,-99.99,735.000000,,2013-04-28 17:51:00,
2013-04-28 11:22:00,77.0,47.0,-100.00,WNW,290,2.0,7.0,35,0.00,,,-99.99,936.000000,,2013-04-28 18:22:00,
2013-04-28 11:32:00,77.0,47.0,-100.00,WNW,290,2.0,7.0,35,0.00,,,-99.99,936.000000,,2013-04-28 18:32:00,
2013-04-28 11:42:00,77.0,47.0,-100.00,WNW,290,2.0,7.0,35,0.00,,,-99.99,936.000000,,2013-04-28 18:42:00,
2013-04-28 11:52:00,77.0,47.0,-100.00,WNW,290,2.0,7.0,35,0.00,,,-99.99,936.000000,,2013-04-28 18:52:00,
2013-04-28 12:21:00,78.0,47.0,-100.00,WSW,256,3.0,9.0,34,0.00,,,-99.99,1069.000000,,2013-04-28 19:21:00,
2013-04-28 12:31:00,78.0,47.0,-100.00,WSW,256,3.0,9.0,34,0.00,,,-99.99,1069.000000,,2013-04-28 19:31:00,
2013-04-28 12:41:00,78.0,47.0,-100.00,WSW,256,3.0,9.0,34,0.00,,,-99.99,1069.000000,,2013-04-28 19:41:00,
2013-04-28 12:52:00,78.0,47.0,-100.00,WSW,256,3.0,9.0,34,0.00,,,-99.99,1069.000000,,2013-04-28 19:52:00,
2013-04-28 13:22:00,79.0,47.0,-100.00,WSW,253,5.0,10.0,33,0.00,,,0.00,1132.000000,,2013-04-28 20:22:00,
2013-04-28 13:32:00,79.0,47.0,-100.00,WSW,253,5.0,10.0,33,0.00,,,0.00,1132.000000,,2013-04-28 20:32:00,
2013-04-28 13:41:00,79.0,47.0,-100.00,WSW,253,5.0,10.0,33,0.00,,,0.00,1132.000000,,2013-04-28 20:41:00,
2013-04-28 13:51:00,79.0,47.0,-100.00,WSW,253,5.0,10.0,33,0.00,,,0.00,1132.000000,,2013-04-28 20:51:00,
2013-04-28 14:22:00,80.0,47.0,-100.00,West,274,4.0,12.0,32,0.00,,,0.00,1129.000000,,2013-04-28 21:22:00,
2013-04-28 14:32:00,80.0,47.0,-100.00,West,274,4.0,12.0,32,0.00,,,0.00,1129.000000,,2013-04-28 21:32:00,
2013-04-28 14:42:00,80.0,47.0,-100.00,West,274,4.0,12.0,32,0.00,,,0.00,1129.000000,,2013-04-28 21:42:00,
2013-04-28 14:52:00,80.0,47.0,-100.00,West,274,4.0,12.0,32,0.00,,,0.00,1129.000000,,2013-04-28 21:52:00,
2013-04-28 15:22:00,81.0,46.0,-100.00,NW,307,4.0,11.0,29,0.00,,,0.00,1061.000000,,2013-04-28 22:22:00,
2013-04-28 15:33:00,81.0,46.0,-100.00,NW,307,4.0,11.0,29,0.00,,,0.00,1061.000000,,2013-04-28 22:33:00,
2013-04-28 15:42:00,81.0,46.0,-100.00,NW,307,4.0,11.0,29,0.00,,,0.00,1061.000000,,2013-04-28 22:42:00,
2013-04-28 15:52:00,81.0,46.0,-100.00,NW,307,4.0,11.0,29,0.00,,,0.00,1061.000000,,2013-04-28 22:52:00,
2013-04-28 16:22:00,80.0,44.0,-100.00,West,277,4.0,11.0,28,0.00,,,0.00,926.000000,,2013-04-28 23:22:00,
2013-04-28 16:32:00,80.0,44.0,-100.00,West,277,4.0,11.0,28,0.00,,,0.00,926.000000,,2013-04-28 23:32:00,
2013-04-28 16:41:00,80.0,44.0,-100.00,West,277,4.0,11.0,28,0.00,,,0.00,926.000000,,2013-04-28 23:41:00,
2013-04-28 16:51:00,80.0,44.0,-100.00,West,277,4.0,11.0,28,0.00,,,0.00,926.000000,,2013-04-28 23:51:00,
2013-04-28 17:22:00,81.0,46.0,-100.00,NW,321,3.0,9.0,29,0.00,,,0.00,726.000000,,2013-04-29 00:22:00,
2013-04-28 17:32:00,81.0,46.0,-100.00,NW,321,3.0,9.0,29,0.00,,,0.00,726.000000,,2013-04-29 00:32:00,
2013-04-28 17:41:00,81.0,46.0,-100.00,NW,321,3.0,9.0,29,0.00,,,0.00,726.000000,,2013-04-29 00:41:00,
2013-04-28 17:52:00,81.0,46.0,-100.00,NW,321,3.0,9.0,29,0.00,,,0.00,726.000000,,2013-04-29 00:52:00,
2013-04-28 18:21:00,81.0,47.0,-100.00,WNW,296,1.0,8.0,31,0.00,,,0.00,455.000000,,2013-04-29 01:21:00,
2013-04-28 18:32:00,81.0,47.0,-100.00,WNW,296,1.0,8.0,31,0.00,,,0.00,455.000000,,2013-04-29 01:32:00,
2013-04-28 18:41:00,81.0,47.0,-100.00,WNW,296,1.0,8.0,31,0.00,,,0.00,455.000000,,2013-04-29 01:41:00,
2013-04-28 18:52:00,81.0,47.0,-100.00,WNW,296,1.0,8.0,31,0.00,,,0.00,455.000000,,2013-04-29 01:52:00,
2013-04-28 19:21:00,73.0,46.0,-100.00,NW,307,0.0,8.0,38,0.00,,,0.00,63.000000,,2013-04-29 02:21:00,
2013-04-28 19:32:00,73.0,46.0,-100.00,NW,307,0.0,8.0,38,0.00,,,0.00,63.000000,,2013-04-29 02:32:00,
2013-04-28 19:41:00,73.0,46.0,-100.00,NW,307,0.0,8.0,38,0.00,,,0.00,63.000000,,2013-04-29 02:41:00,
2013-04-28 19:51:00,73.0,46.0,-100.00,NW,307,0.0,8.0,38,0.00,,,0.00,63.000000,,2013-04-29 02:51:00,
2013-04-28 20:21:00,65.0,47.0,-100.00,East,98,0.0,5.0,52,0.00,,,0.00,18.000000,,2013-04-29 03:21:00,
2013-04-28 20:33:00,65.0,47.0,-100.00,East,98,0.0,5.0,52,0.00,,,0.00,18.000000,,2013-04-29 03:33:00,
2013-04-28 20:42:00,65.0,47.0,-100.00,East,98,0.0,5.0,52,0.00,,,0.00,18.000000,,2013-04-29 03:42:00,
2013-04-28 20:52:00,65.0,47.0,-100.00,East,98,0.0,5.0,52,0.00,,,0.00,18.000000,,2013-04-29 03:52:00,
2013-04-28 21:23:00,60.0,44.0,-100.00,ESE,115,0.0,0.0,55,0.00,,,0.00,0.000000,,2013-04-29 04:23:00,
2013-04-28 21:33:00,60.0,44.0,-100.00,ESE,115,0.0,0.0,55,0.00,,,0.00,0.000000,,2013-04-29 04:33:00,
2013-04-28 21:43:00,60.0,44.0,-100.00,ESE,115,0.0,0.0,55,0.00,,,0.00,0.000000,,2013-04-29 04:43:00,
2013-04-28 21:52:00,60.0,44.0,-100.00,ESE,115,0.0,0.0,55,0.00,,,0.00,0.000000,,2013-04-29 04:52:00,
2013-04-28 22:22:00,60.0,45.0,-100.00,SE,127,1.0,5.0,57,0.00,,,0.00,0.000000,,2013-04-29 05:22:00,
2013-04-28 22:32:00,60.0,45.0,-100.00,SE,127,1.0,5.0,57,0.00,,,0.00,0.000000,,2013-04-29 05:32:00,
2013-04-28 22:42:00,60.0,45.0,-100.00,SE,127,1.0,5.0,57,0.00,,,0.00,0.000000,,2013-04-29 05:42:00,
2013-04-28 22:52:00,60.0,45.0,-100.00,SE,127,1.0,5.0,57,0.00,,,0.00,0.000000,,2013-04-29 05:52:00,
2013-04-28 23:21:00,58.0,43.0,-100.00,SE,131,3.0,7.0,58,0.00,,,0.00,0.000000,,2013-04-29 06:21:00,
2013-04-28 23:32:00,58.0,43.0,-100.00,SE,131,3.0,7.0,58,0.00,,,0.00,0.000000,,2013-04-29 06:32:00,
2013-04-28 23:42:00,58.0,43.0,-100.00,SE,131,3.0,7.0,58,0.00,,,0.00,0.000000,,2013-04-29 06:42:00,
2013-04-28 23:51:00,58.0,43.0,-100.00,SE,131,3.0,7.0,58,0.00,,,0.00,0.000000,,2013-04-29 06:51:00,